Time;durP1;ratioP1;P1;durP2;ratioP2;P2;SDS_P1;SDS_P2;PMS_P1;PMS_P2;Temp;Humidity;BMP_temperature;BMP_pressure;BME280_temperature;BME280_humidity;BME280_pressure;Samples;Min_cycle;Max_cycle;Signal;HPM_P1;HPM_P2
2021/03/06 00:02:23;;;;;;;536.03;482.27;;;;;;;;;;5022950;28;20033;-70
2021/03/06 00:04:49;;;;;;;362.98;327.00;;;;;;;;;;5024592;28;20088;-70
2021/03/06 00:07:15;;;;;;;381.42;344.65;;;;;;;;;;5023909;28;20034;-69
2021/03/06 00:09:41;;;;;;;373.20;336.80;;;;;;;;;;5026955;28;20125;-70
2021/03/06 00:12:08;;;;;;;358.08;322.52;;;;;;;;;;5029053;28;20440;-69
2021/03/06 00:14:34;;;;;;;1177.43;998.40;;;;;;;;;;5028204;28;20033;-69
2021/03/06 00:17:00;;;;;;;371.20;335.08;;;;;;;;;;5031470;28;20040;-69
2021/03/06 00:19:27;;;;;;;378.83;342.23;;;;;;;;;;5026458;28;20473;-69
2021/03/06 00:21:53;;;;;;;352.13;316.65;;;;;;;;;;5029778;28;20033;-69
2021/03/06 00:24:19;;;;;;;338.00;303.05;;;;;;;;;;5026739;28;20033;-69
2021/03/06 00:26:45;;;;;;;358.83;323.05;;;;;;;;;;5026746;28;20481;-69
2021/03/06 00:29:11;;;;;;;383.92;347.33;;;;;;;;;;5024496;28;20041;-69
2021/03/06 00:31:37;;;;;;;341.52;306.50;;;;;;;;;;5027506;28;20026;-70
2021/03/06 00:34:03;;;;;;;1936.72;999.90;;;;;;;;;;5027164;28;20033;-69
2021/03/06 00:36:30;;;;;;;372.17;335.60;;;;;;;;;;5027327;28;20704;-70
2021/03/06 00:38:56;;;;;;;361.85;325.92;;;;;;;;;;5027289;28;20086;-70
2021/03/06 00:41:22;;;;;;;385.63;348.85;;;;;;;;;;5027244;28;20501;-69
2021/03/06 00:43:48;;;;;;;349.77;314.50;;;;;;;;;;5028334;28;20038;-70
2021/03/06 00:46:14;;;;;;;355.27;319.38;;;;;;;;;;5027592;28;20041;-70
2021/03/06 00:48:40;;;;;;;338.65;303.63;;;;;;;;;;5030485;28;20098;-68
2021/03/06 00:51:07;;;;;;;1930.47;999.90;;;;;;;;;;5037136;28;20029;-69
2021/03/06 00:53:34;;;;;;;401.52;363.90;;;;;;;;;;5041695;28;20056;-69
2021/03/06 00:55:59;;;;;;;368.77;332.85;;;;;;;;;;5035738;28;20051;-70
2021/03/06 00:58:26;;;;;;;1308.70;999.90;;;;;;;;;;5042683;28;20481;-69
2021/03/06 01:00:52;;;;;;;381.67;345.30;;;;;;;;;;5047393;28;20477;-70
2021/03/06 01:03:18;;;;;;;378.30;341.92;;;;;;;;;;5035653;28;20117;-69
2021/03/06 01:05:44;;;;;;;361.85;325.92;;;;;;;;;;5046548;28;20025;-69
2021/03/06 01:08:10;;;;;;;395.55;358.30;;;;;;;;;;5039154;28;20053;-70
2021/03/06 01:10:37;;;;;;;372.67;336.55;;;;;;;;;;5038552;28;20030;-70
2021/03/06 01:13:04;;;;;;;360.55;324.73;;;;;;;;;;5038451;28;20048;-69
2021/03/06 01:15:31;;;;;;;367.75;331.83;;;;;;;;;;5040744;28;20057;-70
2021/03/06 01:17:57;;;;;;;651.83;586.25;;;;;;;;;;5035911;28;20087;-71
2021/03/06 01:20:23;;;;;;;364.17;328.42;;;;;;;;;;5048300;28;20025;-70
2021/03/06 01:22:49;;;;;;;363.95;328.20;;;;;;;;;;5034135;28;20390;-71
2021/03/06 01:25:15;;;;;;;337.08;302.20;;;;;;;;;;5040952;28;20021;-69
2021/03/06 01:27:41;;;;;;;356.65;321.25;;;;;;;;;;5045042;28;20041;-70
2021/03/06 01:30:08;;;;;;;354.65;319.23;;;;;;;;;;5044298;28;20052;-70
2021/03/06 01:32:34;;;;;;;374.13;337.92;;;;;;;;;;5045903;28;20029;-70
2021/03/06 01:35:00;;;;;;;347.20;312.00;;;;;;;;;;5047377;28;20033;-70
2021/03/06 01:37:26;;;;;;;1480.75;999.90;;;;;;;;;;5039332;28;20075;-70
2021/03/06 01:39:52;;;;;;;384.73;348.08;;;;;;;;;;5042066;28;20040;-69
2021/03/06 01:42:20;;;;;;;1478.35;999.90;;;;;;;;;;5044435;28;20465;-69
2021/03/06 01:44:46;;;;;;;366.60;330.48;;;;;;;;;;5040655;28;20409;-70
2021/03/06 01:47:12;;;;;;;369.83;333.73;;;;;;;;;;5044772;28;20160;-70
2021/03/06 01:49:39;;;;;;;403.60;366.02;;;;;;;;;;5038836;28;20030;-70
2021/03/06 01:52:05;;;;;;;351.48;316.17;;;;;;;;;;5044096;28;20021;-70
2021/03/06 01:54:31;;;;;;;390.55;353.60;;;;;;;;;;5040267;28;20365;-69
2021/03/06 01:56:57;;;;;;;376.98;340.73;;;;;;;;;;5038540;28;20043;-69
2021/03/06 01:59:24;;;;;;;404.25;365.52;;;;;;;;;;5040373;28;20431;-70
2021/03/06 02:01:50;;;;;;;350.95;315.67;;;;;;;;;;5040217;28;20493;-70
2021/03/06 02:04:16;;;;;;;371.48;335.33;;;;;;;;;;5040508;28;20013;-70
2021/03/06 02:06:42;;;;;;;1967.43;999.90;;;;;;;;;;5036696;28;20440;-70
2021/03/06 02:09:08;;;;;;;442.88;399.92;;;;;;;;;;5034858;28;20038;-71
2021/03/06 02:11:39;;;;;;;347.38;312.20;;;;;;;;;;5033794;28;20477;-70
2021/03/06 02:14:17;;;;;;;1941.78;999.90;;;;;;;;;;5039962;28;20025;-69
2021/03/06 02:16:45;;;;;;;378.20;341.52;;;;;;;;;;5036405;28;20091;-69
2021/03/06 02:19:17;;;;;;;362.13;326.45;;;;;;;;;;5034625;28;20529;-69
2021/03/06 02:21:46;;;;;;;1491.70;999.90;;;;;;;;;;5033696;28;20021;-69
2021/03/06 02:24:18;;;;;;;358.35;322.85;;;;;;;;;;5038465;28;20044;-69
2021/03/06 02:27:03;;;;;;;1949.85;999.90;;;;;;;;;;5033856;28;20041;-68
2021/03/06 02:29:29;;;;;;;391.25;354.17;;;;;;;;;;5043464;28;20059;-69
2021/03/06 02:31:55;;;;;;;386.38;349.77;;;;;;;;;;5035595;28;20026;-69
2021/03/06 02:34:26;;;;;;;370.17;334.25;;;;;;;;;;5045404;28;20032;-69
2021/03/06 02:37:02;;;;;;;318.80;285.02;;;;;;;;;;5040607;28;20021;-69
2021/03/06 02:39:29;;;;;;;365.08;329.58;;;;;;;;;;5052162;28;20025;-70
2021/03/06 02:41:56;;;;;;;393.58;356.17;;;;;;;;;;5043539;28;20069;-70
2021/03/06 02:44:23;;;;;;;391.00;354.00;;;;;;;;;;5041363;28;20036;-68
2021/03/06 02:46:50;;;;;;;323.98;289.88;;;;;;;;;;5037934;28;20028;-69
2021/03/06 02:49:16;;;;;;;362.92;327.13;;;;;;;;;;5038973;28;20033;-69
2021/03/06 02:51:42;;;;;;;357.90;322.58;;;;;;;;;;5036282;28;20049;-68
2021/03/06 02:54:09;;;;;;;391.67;354.60;;;;;;;;;;5037280;28;20068;-70
2021/03/06 02:56:36;;;;;;;384.20;347.75;;;;;;;;;;5035537;28;20032;-69
2021/03/06 02:59:20;;;;;;;1144.22;991.25;;;;;;;;;;5041561;28;20029;-69
2021/03/06 03:01:55;;;;;;;321.88;287.55;;;;;;;;;;5039991;28;20037;-70
2021/03/06 03:04:34;;;;;;;365.42;329.73;;;;;;;;;;5036701;28;20052;-69
2021/03/06 03:07:08;;;;;;;1180.63;996.83;;;;;;;;;;5040007;28;20043;-69
2021/03/06 03:09:35;;;;;;;362.05;326.33;;;;;;;;;;5036485;28;20032;-69
2021/03/06 03:12:12;;;;;;;348.85;313.75;;;;;;;;;;5039412;28;20470;-69
2021/03/06 03:14:49;;;;;;;363.23;327.70;;;;;;;;;;5037467;28;20025;-68
2021/03/06 03:17:25;;;;;;;379.20;342.67;;;;;;;;;;5033883;28;20021;-69
2021/03/06 03:20:02;;;;;;;361.83;326.38;;;;;;;;;;5041189;28;20025;-69
2021/03/06 03:22:32;;;;;;;1944.45;999.90;;;;;;;;;;5031959;28;20033;-68
2021/03/06 03:24:59;;;;;;;340.30;305.17;;;;;;;;;;5032379;28;20442;-69
2021/03/06 03:27:26;;;;;;;345.10;310.23;;;;;;;;;;5040965;28;20104;-69
2021/03/06 03:29:52;;;;;;;362.42;326.65;;;;;;;;;;5037456;28;20040;-69
2021/03/06 03:32:19;;;;;;;346.20;311.25;;;;;;;;;;5042185;28;20401;-69
2021/03/06 03:34:46;;;;;;;339.48;304.77;;;;;;;;;;5049069;28;20128;-69
2021/03/06 03:37:12;;;;;;;366.23;330.63;;;;;;;;;;5035320;28;20418;-69
2021/03/06 03:39:39;;;;;;;1483.40;999.90;;;;;;;;;;5044964;28;20370;-69
2021/03/06 03:42:06;;;;;;;368.38;332.65;;;;;;;;;;5035412;28;20064;-69
2021/03/06 03:44:34;;;;;;;765.63;686.15;;;;;;;;;;5036173;28;20017;-69
2021/03/06 03:47:00;;;;;;;346.70;311.70;;;;;;;;;;5041038;28;20087;-69
2021/03/06 03:49:26;;;;;;;1487.15;999.90;;;;;;;;;;5038638;28;20385;-70
2021/03/06 03:51:53;;;;;;;350.27;315.10;;;;;;;;;;5040402;28;20018;-70
2021/03/06 03:54:19;;;;;;;;;;;;;;;;;;5036826;28;20029;-70
2021/03/06 03:56:46;;;;;;;1484.57;999.90;;;;;;;;;;5034486;28;20368;-69
2021/03/06 03:59:12;;;;;;;352.60;317.50;;;;;;;;;;5043012;28;20025;-69
2021/03/06 04:01:40;;;;;;;306.10;272.85;;;;;;;;;;5033959;28;20508;-69
2021/03/06 04:04:07;;;;;;;316.48;282.98;;;;;;;;;;5037642;28;20432;-69
2021/03/06 04:06:36;;;;;;;350.63;315.77;;;;;;;;;;5036395;28;20116;-69
2021/03/06 04:09:03;;;;;;;1021.60;913.97;;;;;;;;;;5038120;28;20026;-69
2021/03/06 04:11:29;;;;;;;372.50;336.73;;;;;;;;;;5036353;28;20163;-69
2021/03/06 04:13:55;;;;;;;374.10;338.20;;;;;;;;;;5038222;28;20030;-69
2021/03/06 04:16:21;;;;;;;1961.50;999.90;;;;;;;;;;5035038;28;20457;-70
2021/03/06 04:18:47;;;;;;;1943.05;999.90;;;;;;;;;;5036698;28;20033;-71
2021/03/06 04:21:13;;;;;;;349.60;314.00;;;;;;;;;;5034712;28;20040;-70
2021/03/06 04:23:39;;;;;;;1956.63;999.90;;;;;;;;;;5042371;28;20536;-70
2021/03/06 04:26:05;;;;;;;1945.93;999.90;;;;;;;;;;5030833;28;20033;-71
2021/03/06 04:28:31;;;;;;;1940.55;999.90;;;;;;;;;;5043627;28;20059;-69
2021/03/06 04:30:57;;;;;;;348.77;313.40;;;;;;;;;;5034471;28;20037;-71
2021/03/06 04:33:23;;;;;;;357.52;322.27;;;;;;;;;;5039712;28;20068;-69
2021/03/06 04:35:49;;;;;;;360.20;324.60;;;;;;;;;;5041609;28;20037;-71
2021/03/06 04:38:15;;;;;;;334.45;300.40;;;;;;;;;;5035440;28;20033;-70
2021/03/06 04:40:41;;;;;;;319.42;285.83;;;;;;;;;;5038051;28;20026;-70
2021/03/06 04:43:07;;;;;;;319.08;285.42;;;;;;;;;;5037273;28;20068;-70
2021/03/06 04:45:33;;;;;;;349.83;314.85;;;;;;;;;;5043388;28;20025;-70
2021/03/06 04:47:59;;;;;;;360.55;324.70;;;;;;;;;;5036398;28;20037;-70
2021/03/06 04:50:25;;;;;;;358.88;323.35;;;;;;;;;;5037872;28;20033;-70
2021/03/06 04:52:51;;;;;;;351.15;316.00;;;;;;;;;;5036364;28;20481;-70
2021/03/06 04:55:17;;;;;;;360.50;324.80;;;;;;;;;;5041946;28;20025;-69
2021/03/06 04:57:43;;;;;;;371.85;335.95;;;;;;;;;;5040619;28;20025;-69
2021/03/06 05:00:10;;;;;;;1492.00;999.90;;;;;;;;;;5041385;28;20029;-70
2021/03/06 05:02:36;;;;;;;332.02;297.70;;;;;;;;;;5040768;28;20036;-71
2021/03/06 05:05:04;;;;;;;354.98;319.98;;;;;;;;;;5041924;28;20017;-70
2021/03/06 05:07:30;;;;;;;1483.35;999.90;;;;;;;;;;5038630;28;20125;-70
2021/03/06 05:09:56;;;;;;;335.38;300.60;;;;;;;;;;5037847;28;20045;-70
2021/03/06 05:12:22;;;;;;;1489.10;999.90;;;;;;;;;;5039117;28;20040;-70
2021/03/06 05:14:48;;;;;;;296.05;254.48;;;;;;;;;;5042948;28;20026;-70
2021/03/06 05:17:14;;;;;;;1486.43;999.90;;;;;;;;;;5038778;28;20037;-69
2021/03/06 05:19:40;;;;;;;353.40;318.30;;;;;;;;;;5045716;28;20072;-70
2021/03/06 05:22:06;;;;;;;308.77;275.52;;;;;;;;;;5036050;28;20393;-71
2021/03/06 05:24:32;;;;;;;349.77;314.98;;;;;;;;;;5036524;28;20048;-71
2021/03/06 05:27:01;;;;;;;1962.80;999.90;;;;;;;;;;5034456;28;20029;-70
2021/03/06 05:29:31;;;;;;;323.48;289.42;;;;;;;;;;5037720;28;20040;-71
2021/03/06 05:31:58;;;;;;;1495.05;999.90;;;;;;;;;;5041700;28;20079;-72
2021/03/06 05:34:24;;;;;;;318.92;285.15;;;;;;;;;;5054020;28;20033;-70
2021/03/06 05:36:50;;;;;;;335.73;301.42;;;;;;;;;;5039941;28;20375;-70
2021/03/06 05:39:17;;;;;;;346.30;311.63;;;;;;;;;;5045426;28;20021;-70
2021/03/06 05:41:43;;;;;;;337.63;303.27;;;;;;;;;;5037909;28;20083;-70
2021/03/06 05:44:11;;;;;;;324.67;290.65;;;;;;;;;;5047016;28;20056;-70
2021/03/06 05:46:37;;;;;;;308.17;274.77;;;;;;;;;;5042669;28;20025;-70
2021/03/06 05:49:04;;;;;;;1409.45;999.90;;;;;;;;;;5042539;28;20118;-71
2021/03/06 05:51:33;;;;;;;317.88;284.27;;;;;;;;;;5037906;28;20026;-70
2021/03/06 05:54:00;;;;;;;1960.88;999.90;;;;;;;;;;5043739;28;20124;-70
2021/03/06 05:56:26;;;;;;;1491.95;999.90;;;;;;;;;;5039665;28;20044;-71
2021/03/06 05:58:52;;;;;;;358.73;323.35;;;;;;;;;;5044920;28;20444;-70
2021/03/06 06:01:19;;;;;;;491.20;439.85;;;;;;;;;;5037939;28;20041;-70
2021/03/06 06:03:45;;;;;;;337.40;302.88;;;;;;;;;;5045073;28;20048;-71
2021/03/06 06:06:13;;;;;;;361.70;326.35;;;;;;;;;;5047060;28;20029;-69
2021/03/06 06:08:39;;;;;;;;;;;;;;;;;;5044262;28;20512;-70
2021/03/06 06:11:05;;;;;;;1952.82;999.90;;;;;;;;;;5038794;28;19909;-70
2021/03/06 06:13:31;;;;;;;1492.88;999.90;;;;;;;;;;5038273;28;20052;-70
2021/03/06 06:15:57;;;;;;;338.95;304.48;;;;;;;;;;5036117;28;20029;-70
2021/03/06 06:18:23;;;;;;;344.73;309.95;;;;;;;;;;5039018;28;20029;-71
2021/03/06 06:20:49;;;;;;;1970.15;999.90;;;;;;;;;;5039336;28;20025;-70
2021/03/06 06:23:16;;;;;;;331.70;297.38;;;;;;;;;;5034138;28;20472;-71
2021/03/06 06:25:43;;;;;;;327.17;293.30;;;;;;;;;;5034084;28;20538;-68
2021/03/06 06:28:09;;;;;;;333.95;299.50;;;;;;;;;;5035156;28;20103;-70
2021/03/06 06:30:35;;;;;;;323.55;289.58;;;;;;;;;;5033328;28;20040;-69
2021/03/06 06:33:02;;;;;;;1974.72;999.90;;;;;;;;;;5049187;28;20036;-76
2021/03/06 06:35:28;;;;;;;319.75;285.75;;;;;;;;;;5044415;28;20049;-72
2021/03/06 06:38:01;;;;;;;1493.38;999.90;;;;;;;;;;5039519;28;20110;-71
2021/03/06 06:40:29;;;;;;;317.65;284.15;;;;;;;;;;5037586;28;20032;-71
2021/03/06 06:42:55;;;;;;;334.58;300.35;;;;;;;;;;5042077;28;20509;-70
2021/03/06 06:45:22;;;;;;;352.60;317.45;;;;;;;;;;5038651;28;20025;-69
2021/03/06 06:47:49;;;;;;;342.33;307.42;;;;;;;;;;5038854;28;20028;-69
2021/03/06 06:50:27;;;;;;;1986.10;999.90;;;;;;;;;;5036429;28;20171;-72
2021/03/06 06:52:53;;;;;;;1492.38;999.90;;;;;;;;;;5038919;28;20087;-71
2021/03/06 06:55:19;;;;;;;369.42;333.60;;;;;;;;;;5040386;28;20163;-72
2021/03/06 06:57:48;;;;;;;354.58;319.55;;;;;;;;;;5038629;28;20080;-69
2021/03/06 07:00:15;;;;;;;1355.88;999.90;;;;;;;;;;5038194;28;20104;-70
2021/03/06 07:03:00;;;;;;;361.55;326.00;;;;;;;;;;5039055;28;20021;-69
2021/03/06 07:05:29;;;;;;;357.67;322.38;;;;;;;;;;5034948;28;20370;-71
2021/03/06 07:07:56;;;;;;;1966.47;999.90;;;;;;;;;;5035391;28;20060;-69
2021/03/06 07:10:22;;;;;;;346.42;311.20;;;;;;;;;;5041900;28;20024;-70
2021/03/06 07:13:01;;;;;;;320.58;286.98;;;;;;;;;;5036289;28;20037;-70
2021/03/06 07:15:29;;;;;;;1493.10;999.90;;;;;;;;;;5038961;28;20025;-70
2021/03/06 07:17:56;;;;;;;1490.72;999.90;;;;;;;;;;5035176;28;20033;-70
2021/03/06 07:20:22;;;;;;;299.90;266.85;;;;;;;;;;5039185;28;20035;-70
2021/03/06 07:22:49;;;;;;;347.73;313.08;;;;;;;;;;5030911;28;20433;-72
2021/03/06 07:25:15;;;;;;;309.17;276.02;;;;;;;;;;5034325;28;20026;-70
2021/03/06 07:27:41;;;;;;;1492.88;999.90;;;;;;;;;;5032355;28;20033;-71
2021/03/06 07:30:09;;;;;;;361.25;325.98;;;;;;;;;;5033200;28;20065;-69
2021/03/06 07:32:38;;;;;;;326.02;291.98;;;;;;;;;;5033809;28;20029;-70
2021/03/06 07:35:05;;;;;;;317.98;284.30;;;;;;;;;;5046335;28;20029;-70
2021/03/06 07:37:32;;;;;;;327.80;293.52;;;;;;;;;;5032759;28;20049;-70
2021/03/06 07:39:59;;;;;;;1971.32;999.90;;;;;;;;;;5036920;28;20022;-70
2021/03/06 07:42:29;;;;;;;1983.80;999.90;;;;;;;;;;5038093;28;20037;-69
2021/03/06 07:44:56;;;;;;;1490.32;999.90;;;;;;;;;;5038468;28;20428;-70
2021/03/06 07:47:24;;;;;;;347.65;312.65;;;;;;;;;;5042028;28;20044;-70
2021/03/06 07:49:52;;;;;;;1983.50;999.90;;;;;;;;;;5035831;28;20033;-70
2021/03/06 07:52:19;;;;;;;358.75;323.17;;;;;;;;;;5037852;28;20033;-71
2021/03/06 07:54:45;;;;;;;347.15;312.05;;;;;;;;;;5036753;28;20650;-70
2021/03/06 07:57:11;;;;;;;1996.88;999.90;;;;;;;;;;5036905;28;20033;-70
2021/03/06 07:59:54;;;;;;;380.45;343.88;;;;;;;;;;5034960;28;20041;-70
2021/03/06 08:02:46;;;;;;;355.40;320.23;;;;;;;;;;5039829;28;20036;-70
2021/03/06 08:05:35;;;;;;;330.10;296.00;;;;;;;;;;5038396;28;20037;-70
2021/03/06 08:08:01;;;;;;;329.02;294.90;;;;;;;;;;5036432;28;20050;-70
2021/03/06 08:10:27;;;;;;;338.98;304.17;;;;;;;;;;5044519;28;20086;-70
2021/03/06 08:12:53;;;;;;;332.05;297.48;;;;;;;;;;5034153;28;20041;-71
2021/03/06 08:15:19;;;;;;;353.90;318.63;;;;;;;;;;5037039;28;20377;-70
2021/03/06 08:17:45;;;;;;;990.53;883.72;;;;;;;;;;5031621;28;20417;-70
2021/03/06 08:20:22;;;;;;;365.48;329.55;;;;;;;;;;5037451;28;20156;-70
2021/03/06 08:23:08;;;;;;;363.58;327.55;;;;;;;;;;5031767;28;20111;-70
2021/03/06 08:25:34;;;;;;;1960.70;999.90;;;;;;;;;;5032289;28;20026;-71
2021/03/06 08:28:18;;;;;;;734.05;656.22;;;;;;;;;;5035403;28;22969;-71
2021/03/06 08:30:44;;;;;;;345.40;310.55;;;;;;;;;;5031501;28;20029;-70
2021/03/06 08:33:17;;;;;;;1959.53;999.90;;;;;;;;;;5052254;28;20032;-70
2021/03/06 08:35:43;;;;;;;1967.70;999.90;;;;;;;;;;5044827;28;20022;-71
2021/03/06 08:38:35;;;;;;;1489.55;999.90;;;;;;;;;;5040720;28;20450;-69
2021/03/06 08:41:01;;;;;;;1972.53;999.90;;;;;;;;;;5041228;28;20037;-71
2021/03/06 08:43:27;;;;;;;1969.32;999.90;;;;;;;;;;5036447;28;20029;-70
2021/03/06 08:45:53;;;;;;;340.70;305.60;;;;;;;;;;5044399;28;20025;-71
2021/03/06 08:48:22;;;;;;;371.95;336.15;;;;;;;;;;5046393;28;20040;-71
2021/03/06 08:50:48;;;;;;;345.33;310.45;;;;;;;;;;5042763;28;20021;-69
2021/03/06 08:53:15;;;;;;;387.42;350.98;;;;;;;;;;5037239;28;20041;-68
2021/03/06 08:55:42;;;;;;;350.45;315.00;;;;;;;;;;5039618;28;20037;-69
2021/03/06 08:58:09;;;;;;;352.85;317.55;;;;;;;;;;5036476;28;20033;-69
2021/03/06 09:00:36;;;;;;;371.77;335.65;;;;;;;;;;5042753;28;20033;-69
2021/03/06 09:03:14;;;;;;;355.65;320.25;;;;;;;;;;5036593;28;20147;-69
2021/03/06 09:05:41;;;;;;;324.70;290.63;;;;;;;;;;5041924;28;20537;-69
2021/03/06 09:08:07;;;;;;;360.73;325.20;;;;;;;;;;5036969;28;20045;-69
2021/03/06 09:10:35;;;;;;;1487.20;999.90;;;;;;;;;;5045168;28;20036;-70
2021/03/06 09:13:01;;;;;;;1958.10;999.90;;;;;;;;;;5036763;28;20497;-69
2021/03/06 09:15:32;;;;;;;1957.55;999.90;;;;;;;;;;5040390;28;20026;-69
2021/03/06 09:17:59;;;;;;;379.08;342.45;;;;;;;;;;5037910;28;20112;-69
2021/03/06 09:20:26;;;;;;;349.55;314.35;;;;;;;;;;5037920;28;20057;-69
2021/03/06 09:22:52;;;;;;;358.33;322.80;;;;;;;;;;5034016;28;20018;-69
2021/03/06 09:25:30;;;;;;;355.00;319.80;;;;;;;;;;5034505;28;20537;-70
2021/03/06 09:27:56;;;;;;;363.95;327.85;;;;;;;;;;5034761;28;20040;-69
2021/03/06 09:30:24;;;;;;;356.05;320.38;;;;;;;;;;5035549;28;20040;-69
2021/03/06 09:32:50;;;;;;;317.48;283.63;;;;;;;;;;5036696;28;20028;-69
2021/03/06 09:35:17;;;;;;;1959.43;999.90;;;;;;;;;;5036558;28;20091;-70
2021/03/06 09:37:43;;;;;;;1946.80;999.90;;;;;;;;;;5038049;28;20067;-69
2021/03/06 09:40:16;;;;;;;331.95;297.30;;;;;;;;;;5047322;28;20295;-69
2021/03/06 09:42:42;;;;;;;350.23;314.88;;;;;;;;;;5040576;28;20021;-69
2021/03/06 09:45:09;;;;;;;354.50;319.05;;;;;;;;;;5037747;28;20033;-69
2021/03/06 09:47:35;;;;;;;346.30;311.23;;;;;;;;;;5044525;28;20469;-71
2021/03/06 09:50:01;;;;;;;309.27;275.70;;;;;;;;;;5040780;28;20128;-68
2021/03/06 09:52:33;;;;;;;348.13;313.17;;;;;;;;;;5043360;28;20504;-70
2021/03/06 09:55:00;;;;;;;329.80;295.45;;;;;;;;;;5040865;28;20033;-70
2021/03/06 09:57:26;;;;;;;347.75;312.75;;;;;;;;;;5042566;28;20064;-70
2021/03/06 09:59:52;;;;;;;351.63;316.33;;;;;;;;;;5039168;28;20033;-69
2021/03/06 10:02:23;;;;;;;1957.78;999.90;;;;;;;;;;5042792;28;20033;-69
2021/03/06 10:04:49;;;;;;;370.73;334.38;;;;;;;;;;5039582;28;20057;-72
2021/03/06 10:07:15;;;;;;;1971.32;999.90;;;;;;;;;;5037752;28;20459;-69
2021/03/06 10:09:42;;;;;;;1938.15;999.90;;;;;;;;;;5040311;28;20370;-69
2021/03/06 10:12:09;;;;;;;347.75;312.42;;;;;;;;;;5043879;28;20021;-70
2021/03/06 10:14:35;;;;;;;349.92;314.55;;;;;;;;;;5041294;28;20035;-72
2021/03/06 10:17:04;;;;;;;1491.25;999.90;;;;;;;;;;5038625;28;20433;-70
2021/03/06 10:19:31;;;;;;;1956.15;999.90;;;;;;;;;;5040518;28;20044;-69
2021/03/06 10:22:03;;;;;;;358.88;322.80;;;;;;;;;;5033067;28;20496;-73
2021/03/06 10:24:29;;;;;;;356.33;320.83;;;;;;;;;;5035912;28;20075;-70
2021/03/06 10:26:59;;;;;;;364.38;328.48;;;;;;;;;;5036612;28;20887;-70
2021/03/06 10:29:26;;;;;;;1977.30;999.90;;;;;;;;;;5041339;28;20034;-70
2021/03/06 10:32:02;;;;;;;370.15;333.67;;;;;;;;;;5037336;28;20492;-71
2021/03/06 10:34:29;;;;;;;354.88;319.45;;;;;;;;;;5051901;28;20033;-73
2021/03/06 10:36:55;;;;;;;;;;;;;;;;;;5035807;28;20109;-71
2021/03/06 10:39:21;;;;;;;1484.88;999.90;;;;;;;;;;5038695;28;19916;-71
2021/03/06 10:41:56;;;;;;;376.58;340.45;;;;;;;;;;5047162;28;20028;-70
2021/03/06 10:44:22;;;;;;;383.73;347.05;;;;;;;;;;5042186;28;20071;-71
2021/03/06 10:47:01;;;;;;;344.70;309.23;;;;;;;;;;5040583;28;20041;-72
2021/03/06 10:49:41;;;;;;;358.75;323.38;;;;;;;;;;5040404;28;20065;-74
2021/03/06 10:52:11;;;;;;;1952.40;999.90;;;;;;;;;;5039901;28;20091;-70
2021/03/06 10:54:47;;;;;;;1944.00;999.90;;;;;;;;;;5041834;28;20083;-70
2021/03/06 10:57:13;;;;;;;1086.35;963.67;;;;;;;;;;5037913;28;20473;-76
2021/03/06 10:59:39;;;;;;;350.52;315.30;;;;;;;;;;5039199;28;20026;-73
2021/03/06 11:02:05;;;;;;;345.70;310.45;;;;;;;;;;5030785;28;20053;-74
2021/03/06 11:04:35;;;;;;;375.35;339.15;;;;;;;;;;5035743;28;20030;-74
2021/03/06 11:07:03;;;;;;;1960.63;999.90;;;;;;;;;;5040455;28;20033;-70
2021/03/06 11:09:31;;;;;;;1962.25;999.90;;;;;;;;;;5046756;28;20132;-70
2021/03/06 11:11:57;;;;;;;1964.50;999.90;;;;;;;;;;5040284;28;20075;-70
2021/03/06 11:14:27;;;;;;;388.52;351.42;;;;;;;;;;5032677;28;20505;-71
2021/03/06 11:16:53;;;;;;;375.92;339.63;;;;;;;;;;5039575;28;20474;-72
2021/03/06 11:19:20;;;;;;;1951.10;999.90;;;;;;;;;;5033660;28;20032;-71
2021/03/06 11:21:46;;;;;;;1946.53;999.90;;;;;;;;;;5035934;28;20132;-71
2021/03/06 11:24:12;;;;;;;387.70;350.77;;;;;;;;;;5030231;28;20105;-71
2021/03/06 11:26:38;;;;;;;373.90;337.38;;;;;;;;;;5040143;28;20017;-73
2021/03/06 11:29:05;;;;;;;381.67;345.20;;;;;;;;;;5034041;28;20037;-71
2021/03/06 11:31:32;;;;;;;353.80;318.17;;;;;;;;;;5032681;28;20385;-72
2021/03/06 11:33:58;;;;;;;399.00;361.83;;;;;;;;;;5036385;28;20036;-71
2021/03/06 11:36:24;;;;;;;1479.43;999.90;;;;;;;;;;5033434;28;20029;-72
2021/03/06 11:38:50;;;;;;;383.73;346.92;;;;;;;;;;5036560;28;20033;-72
2021/03/06 11:41:17;;;;;;;374.02;337.73;;;;;;;;;;5032006;28;20029;-74
2021/03/06 11:43:43;;;;;;;340.98;305.90;;;;;;;;;;5036364;28;20025;-79
2021/03/06 11:46:09;;;;;;;351.33;315.20;;;;;;;;;;5035461;28;20025;-72
2021/03/06 11:48:35;;;;;;;328.85;294.17;;;;;;;;;;5037730;28;20032;-69
2021/03/06 11:51:01;;;;;;;317.65;283.40;;;;;;;;;;5037797;28;20487;-69
2021/03/06 11:53:27;;;;;;;356.30;320.58;;;;;;;;;;5031171;28;20544;-75
2021/03/06 11:55:53;;;;;;;363.50;327.30;;;;;;;;;;5033947;28;20025;-78
2021/03/06 11:58:19;;;;;;;333.65;298.85;;;;;;;;;;5032630;28;20045;-77
2021/03/06 12:00:45;;;;;;;356.38;320.42;;;;;;;;;;5042282;28;20022;-71
2021/03/06 12:03:11;;;;;;;355.92;320.20;;;;;;;;;;5034647;28;20539;-75
2021/03/06 12:05:37;;;;;;;388.90;351.73;;;;;;;;;;5042934;28;20079;-76
2021/03/06 12:08:03;;;;;;;353.30;317.45;;;;;;;;;;5049503;28;20041;-74
2021/03/06 12:10:30;;;;;;;403.45;365.60;;;;;;;;;;5052910;28;20025;-79
2021/03/06 12:12:57;;;;;;;349.95;314.05;;;;;;;;;;5050812;28;20033;-76
2021/03/06 12:15:23;;;;;;;354.35;318.70;;;;;;;;;;5057143;28;20508;-80
2021/03/06 12:17:49;;;;;;;349.85;314.25;;;;;;;;;;5042622;28;20025;-78
2021/03/06 12:20:16;;;;;;;348.92;313.27;;;;;;;;;;5045652;28;20108;-77
2021/03/06 12:22:42;;;;;;;371.85;335.25;;;;;;;;;;5044413;28;20056;-76
2021/03/06 12:25:09;;;;;;;347.67;312.25;;;;;;;;;;5051113;28;20112;-78
2021/03/06 12:27:36;;;;;;;375.60;339.15;;;;;;;;;;5048240;28;20593;-77
2021/03/06 12:30:05;;;;;;;372.52;335.80;;;;;;;;;;5052664;28;20025;-77
2021/03/06 12:32:31;;;;;;;362.58;326.38;;;;;;;;;;5044839;28;20033;-74
2021/03/06 12:34:57;;;;;;;377.55;340.77;;;;;;;;;;5047257;28;20048;-76
2021/03/06 12:37:23;;;;;;;347.73;312.40;;;;;;;;;;5035983;28;20035;-77
2021/03/06 12:39:49;;;;;;;381.92;345.05;;;;;;;;;;5040966;28;20033;-74
2021/03/06 12:42:15;;;;;;;400.92;363.33;;;;;;;;;;5042398;28;20056;-74
2021/03/06 12:44:41;;;;;;;388.85;351.63;;;;;;;;;;5046706;28;20033;-75
2021/03/06 12:47:07;;;;;;;373.83;337.10;;;;;;;;;;5039904;28;20397;-81
2021/03/06 12:49:33;;;;;;;376.15;339.42;;;;;;;;;;5049784;28;20049;-79
2021/03/06 12:51:59;;;;;;;406.92;368.80;;;;;;;;;;5042290;28;20481;-70
2021/03/06 12:54:26;;;;;;;352.95;317.20;;;;;;;;;;5053678;28;20075;-81
2021/03/06 12:56:54;;;;;;;392.47;355.10;;;;;;;;;;5047790;28;20380;-80
2021/03/06 12:59:20;;;;;;;346.15;310.70;;;;;;;;;;5058750;28;20040;-70
2021/03/06 13:01:46;;;;;;;359.00;322.75;;;;;;;;;;5042120;28;20028;-80
2021/03/06 13:04:12;;;;;;;386.85;349.52;;;;;;;;;;5047602;28;20552;-70
2021/03/06 13:06:38;;;;;;;345.42;309.85;;;;;;;;;;5046223;28;20183;-75
2021/03/06 13:09:04;;;;;;;331.90;296.73;;;;;;;;;;5050323;28;20119;-80
2021/03/06 13:11:30;;;;;;;340.20;304.75;;;;;;;;;;5048784;28;20034;-71
2021/03/06 13:13:56;;;;;;;363.70;326.90;;;;;;;;;;5046512;28;20435;-71
2021/03/06 13:16:22;;;;;;;341.83;306.35;;;;;;;;;;5047189;28;20140;-74
2021/03/06 13:18:48;;;;;;;352.08;316.05;;;;;;;;;;5050819;28;20036;-71
2021/03/06 13:21:14;;;;;;;341.65;305.80;;;;;;;;;;5045822;28;20441;-71
2021/03/06 13:23:40;;;;;;;326.10;291.17;;;;;;;;;;5051169;28;20037;-71
2021/03/06 13:26:06;;;;;;;416.30;377.42;;;;;;;;;;5046161;28;20083;-71
2021/03/06 13:28:33;;;;;;;298.13;251.30;;;;;;;;;;5048290;28;20048;-72
2021/03/06 13:30:59;;;;;;;379.15;342.08;;;;;;;;;;5036921;28;20063;-71
2021/03/06 13:33:25;;;;;;;344.50;308.70;;;;;;;;;;5037895;28;20057;-71
2021/03/06 13:35:51;;;;;;;344.38;308.77;;;;;;;;;;5036249;28;20031;-71
2021/03/06 13:38:17;;;;;;;362.48;326.13;;;;;;;;;;5040735;28;20032;-71
2021/03/06 13:40:44;;;;;;;299.27;253.30;;;;;;;;;;5037081;28;20051;-70
2021/03/06 13:43:10;;;;;;;348.65;312.83;;;;;;;;;;5041578;28;20029;-73
2021/03/06 13:45:37;;;;;;;334.60;299.67;;;;;;;;;;5037997;28;20033;-71
2021/03/06 13:48:03;;;;;;;352.17;316.30;;;;;;;;;;5039319;28;20045;-71
2021/03/06 13:50:32;;;;;;;329.20;294.10;;;;;;;;;;5039884;28;20100;-71
2021/03/06 13:52:59;;;;;;;305.33;265.00;;;;;;;;;;5039854;28;20160;-73
2021/03/06 13:55:25;;;;;;;324.80;290.25;;;;;;;;;;5047045;28;20037;-70